sensor_id;sensor_type;location;lat;lon;timestamp;P1;durP1;ratioP1;P2;durP2;ratioP2
4102;SDS011;2065;49.790;9.620;2022-09-03T00:00:51;3.13;;;1.60;;
4102;SDS011;2065;49.790;9.620;2022-09-03T00:03:21;1.70;;;1.50;;
4102;SDS011;2065;49.790;9.620;2022-09-03T00:05:59;1.80;;;1.63;;
4102;SDS011;2065;49.790;9.620;2022-09-03T00:08:32;3.17;;;1.90;;
4102;SDS011;2065;49.790;9.620;2022-09-03T00:11:03;2.10;;;1.77;;
4102;SDS011;2065;49.790;9.620;2022-09-03T00:13:41;2.67;;;1.60;;
4102;SDS011;2065;49.790;9.620;2022-09-03T00:16:12;1.63;;;1.53;;
4102;SDS011;2065;49.790;9.620;2022-09-03T00:18:44;2.10;;;1.90;;
4102;SDS011;2065;49.790;9.620;2022-09-03T00:21:15;3.30;;;1.70;;
4102;SDS011;2065;49.790;9.620;2022-09-03T00:23:45;3.80;;;1.70;;
4102;SDS011;2065;49.790;9.620;2022-09-03T00:26:18;3.13;;;1.70;;
4102;SDS011;2065;49.790;9.620;2022-09-03T00:28:54;3.03;;;2.10;;
4102;SDS011;2065;49.790;9.620;2022-09-03T00:31:27;2.03;;;1.80;;
4102;SDS011;2065;49.790;9.620;2022-09-03T00:33:59;2.03;;;1.93;;
4102;SDS011;2065;49.790;9.620;2022-09-03T00:36:33;2.83;;;1.87;;
4102;SDS011;2065;49.790;9.620;2022-09-03T00:39:07;2.37;;;1.70;;
4102;SDS011;2065;49.790;9.620;2022-09-03T00:41:36;1.70;;;1.60;;
4102;SDS011;2065;49.790;9.620;2022-09-03T00:44:13;1.90;;;1.80;;
4102;SDS011;2065;49.790;9.620;2022-09-03T00:46:52;1.70;;;1.50;;
4102;SDS011;2065;49.790;9.620;2022-09-03T00:49:31;2.00;;;1.80;;
4102;SDS011;2065;49.790;9.620;2022-09-03T00:52:10;1.60;;;1.50;;
4102;SDS011;2065;49.790;9.620;2022-09-03T00:54:46;2.73;;;1.93;;
4102;SDS011;2065;49.790;9.620;2022-09-03T00:57:23;2.03;;;1.60;;
4102;SDS011;2065;49.790;9.620;2022-09-03T01:00:00;2.43;;;1.70;;
4102;SDS011;2065;49.790;9.620;2022-09-03T01:02:33;5.00;;;1.80;;
4102;SDS011;2065;49.790;9.620;2022-09-03T01:05:11;1.90;;;1.80;;
4102;SDS011;2065;49.790;9.620;2022-09-03T01:07:53;3.20;;;1.60;;
4102;SDS011;2065;49.790;9.620;2022-09-03T01:10:30;2.00;;;1.90;;
4102;SDS011;2065;49.790;9.620;2022-09-03T01:13:06;3.20;;;2.47;;
4102;SDS011;2065;49.790;9.620;2022-09-03T01:15:40;6.80;;;2.10;;
4102;SDS011;2065;49.790;9.620;2022-09-03T01:18:16;3.80;;;1.73;;
4102;SDS011;2065;49.790;9.620;2022-09-03T01:20:54;3.70;;;2.13;;
4102;SDS011;2065;49.790;9.620;2022-09-03T01:23:37;2.40;;;2.13;;
4102;SDS011;2065;49.790;9.620;2022-09-03T01:26:26;3.00;;;1.87;;
4102;SDS011;2065;49.790;9.620;2022-09-03T01:29:01;2.47;;;2.27;;
4102;SDS011;2065;49.790;9.620;2022-09-03T01:31:37;2.07;;;1.80;;
4102;SDS011;2065;49.790;9.620;2022-09-03T01:34:15;2.00;;;1.90;;
4102;SDS011;2065;49.790;9.620;2022-09-03T01:36:51;3.50;;;1.73;;
4102;SDS011;2065;49.790;9.620;2022-09-03T01:39:29;1.90;;;1.80;;
4102;SDS011;2065;49.790;9.620;2022-09-03T01:42:08;3.90;;;2.23;;
4102;SDS011;2065;49.790;9.620;2022-09-03T01:44:52;2.07;;;1.97;;
4102;SDS011;2065;49.790;9.620;2022-09-03T01:47:35;2.30;;;2.10;;
4102;SDS011;2065;49.790;9.620;2022-09-03T01:50:19;2.30;;;1.83;;
4102;SDS011;2065;49.790;9.620;2022-09-03T01:53:00;2.00;;;1.90;;
4102;SDS011;2065;49.790;9.620;2022-09-03T01:55:35;6.70;;;1.80;;
4102;SDS011;2065;49.790;9.620;2022-09-03T01:58:10;2.07;;;1.97;;
4102;SDS011;2065;49.790;9.620;2022-09-03T02:00:42;2.17;;;1.97;;
4102;SDS011;2065;49.790;9.620;2022-09-03T02:03:14;2.17;;;1.73;;
4102;SDS011;2065;49.790;9.620;2022-09-03T02:05:42;2.20;;;2.00;;
4102;SDS011;2065;49.790;9.620;2022-09-03T02:08:11;2.47;;;2.27;;
4102;SDS011;2065;49.790;9.620;2022-09-03T02:10:39;3.53;;;2.00;;
4102;SDS011;2065;49.790;9.620;2022-09-03T02:13:11;1.90;;;1.80;;
4102;SDS011;2065;49.790;9.620;2022-09-03T02:15:43;1.77;;;1.67;;
4102;SDS011;2065;49.790;9.620;2022-09-03T02:18:13;2.53;;;2.13;;
4102;SDS011;2065;49.790;9.620;2022-09-03T02:20:44;2.30;;;1.93;;
4102;SDS011;2065;49.790;9.620;2022-09-03T02:23:12;2.20;;;2.00;;
4102;SDS011;2065;49.790;9.620;2022-09-03T02:25:40;2.20;;;2.00;;
4102;SDS011;2065;49.790;9.620;2022-09-03T02:28:10;2.07;;;1.87;;
4102;SDS011;2065;49.790;9.620;2022-09-03T02:30:39;2.30;;;2.10;;
4102;SDS011;2065;49.790;9.620;2022-09-03T02:33:07;2.90;;;2.10;;
4102;SDS011;2065;49.790;9.620;2022-09-03T02:35:35;3.53;;;2.43;;
4102;SDS011;2065;49.790;9.620;2022-09-03T02:38:09;2.20;;;2.00;;
4102;SDS011;2065;49.790;9.620;2022-09-03T02:40:37;3.73;;;1.90;;
4102;SDS011;2065;49.790;9.620;2022-09-03T02:43:05;2.27;;;2.07;;
4102;SDS011;2065;49.790;9.620;2022-09-03T02:45:37;1.73;;;1.63;;
4102;SDS011;2065;49.790;9.620;2022-09-03T02:48:12;4.00;;;1.93;;
4102;SDS011;2065;49.790;9.620;2022-09-03T02:50:41;2.83;;;2.10;;
4102;SDS011;2065;49.790;9.620;2022-09-03T02:53:09;2.33;;;2.13;;
4102;SDS011;2065;49.790;9.620;2022-09-03T02:55:36;2.00;;;1.80;;
4102;SDS011;2065;49.790;9.620;2022-09-03T02:58:03;1.90;;;1.80;;
4102;SDS011;2065;49.790;9.620;2022-09-03T03:00:32;2.00;;;1.90;;
4102;SDS011;2065;49.790;9.620;2022-09-03T03:03:01;2.13;;;1.93;;
4102;SDS011;2065;49.790;9.620;2022-09-03T03:05:33;2.10;;;1.90;;
4102;SDS011;2065;49.790;9.620;2022-09-03T03:08:07;2.40;;;2.20;;
4102;SDS011;2065;49.790;9.620;2022-09-03T03:10:34;2.30;;;2.10;;
4102;SDS011;2065;49.790;9.620;2022-09-03T03:13:01;1.70;;;1.60;;
4102;SDS011;2065;49.790;9.620;2022-09-03T03:15:29;2.27;;;2.07;;
4102;SDS011;2065;49.790;9.620;2022-09-03T03:17:56;2.20;;;1.90;;
4102;SDS011;2065;49.790;9.620;2022-09-03T03:20:23;2.33;;;1.90;;
4102;SDS011;2065;49.790;9.620;2022-09-03T03:22:51;2.40;;;2.17;;
4102;SDS011;2065;49.790;9.620;2022-09-03T03:25:18;2.80;;;2.20;;
4102;SDS011;2065;49.790;9.620;2022-09-03T03:27:46;2.70;;;1.73;;
4102;SDS011;2065;49.790;9.620;2022-09-03T03:30:12;1.83;;;1.73;;
4102;SDS011;2065;49.790;9.620;2022-09-03T03:32:40;5.63;;;1.97;;
4102;SDS011;2065;49.790;9.620;2022-09-03T03:35:07;2.03;;;1.93;;
4102;SDS011;2065;49.790;9.620;2022-09-03T03:37:36;2.50;;;2.30;;
4102;SDS011;2065;49.790;9.620;2022-09-03T03:40:04;1.93;;;1.60;;
4102;SDS011;2065;49.790;9.620;2022-09-03T03:42:32;2.07;;;1.87;;
4102;SDS011;2065;49.790;9.620;2022-09-03T03:44:59;2.10;;;1.90;;
4102;SDS011;2065;49.790;9.620;2022-09-03T03:47:27;2.70;;;1.80;;
4102;SDS011;2065;49.790;9.620;2022-09-03T03:49:55;2.20;;;2.00;;
4102;SDS011;2065;49.790;9.620;2022-09-03T03:52:22;1.80;;;1.70;;
4102;SDS011;2065;49.790;9.620;2022-09-03T03:54:49;3.00;;;2.17;;
4102;SDS011;2065;49.790;9.620;2022-09-03T03:57:18;2.00;;;1.87;;
4102;SDS011;2065;49.790;9.620;2022-09-03T03:59:46;8.70;;;2.10;;
4102;SDS011;2065;49.790;9.620;2022-09-03T04:02:14;2.30;;;2.10;;
4102;SDS011;2065;49.790;9.620;2022-09-03T04:04:41;4.43;;;2.17;;
4102;SDS011;2065;49.790;9.620;2022-09-03T04:07:08;2.20;;;2.00;;
4102;SDS011;2065;49.790;9.620;2022-09-03T04:09:35;2.80;;;1.90;;
4102;SDS011;2065;49.790;9.620;2022-09-03T04:12:03;2.07;;;1.97;;
4102;SDS011;2065;49.790;9.620;2022-09-03T04:14:34;2.80;;;1.90;;
4102;SDS011;2065;49.790;9.620;2022-09-03T04:17:01;1.90;;;1.80;;
4102;SDS011;2065;49.790;9.620;2022-09-03T04:19:28;1.90;;;1.80;;
4102;SDS011;2065;49.790;9.620;2022-09-03T04:21:55;2.07;;;1.87;;
4102;SDS011;2065;49.790;9.620;2022-09-03T04:24:22;1.90;;;1.80;;
4102;SDS011;2065;49.790;9.620;2022-09-03T04:26:49;2.30;;;2.10;;
4102;SDS011;2065;49.790;9.620;2022-09-03T04:29:18;1.97;;;1.87;;
4102;SDS011;2065;49.790;9.620;2022-09-03T04:31:46;1.73;;;1.63;;
4102;SDS011;2065;49.790;9.620;2022-09-03T04:34:28;2.67;;;2.13;;
4102;SDS011;2065;49.790;9.620;2022-09-03T04:36:54;3.57;;;2.17;;
4102;SDS011;2065;49.790;9.620;2022-09-03T04:39:23;4.40;;;2.00;;
4102;SDS011;2065;49.790;9.620;2022-09-03T04:41:50;1.80;;;1.70;;
4102;SDS011;2065;49.790;9.620;2022-09-03T04:44:17;1.80;;;1.70;;
4102;SDS011;2065;49.790;9.620;2022-09-03T04:46:44;1.83;;;1.73;;
4102;SDS011;2065;49.790;9.620;2022-09-03T04:49:13;1.93;;;1.83;;
4102;SDS011;2065;49.790;9.620;2022-09-03T04:51:40;2.50;;;2.17;;
4102;SDS011;2065;49.790;9.620;2022-09-03T04:54:08;9.23;;;2.23;;
4102;SDS011;2065;49.790;9.620;2022-09-03T04:56:37;2.10;;;1.87;;
4102;SDS011;2065;49.790;9.620;2022-09-03T04:59:05;2.00;;;1.90;;
4102;SDS011;2065;49.790;9.620;2022-09-03T05:01:34;2.70;;;1.80;;
4102;SDS011;2065;49.790;9.620;2022-09-03T05:04:06;3.00;;;1.60;;
4102;SDS011;2065;49.790;9.620;2022-09-03T05:06:34;2.33;;;1.60;;
4102;SDS011;2065;49.790;9.620;2022-09-03T05:09:02;2.13;;;1.93;;
4102;SDS011;2065;49.790;9.620;2022-09-03T05:11:30;2.40;;;1.80;;
4102;SDS011;2065;49.790;9.620;2022-09-03T05:13:58;2.50;;;2.00;;
4102;SDS011;2065;49.790;9.620;2022-09-03T05:16:25;1.90;;;1.80;;
4102;SDS011;2065;49.790;9.620;2022-09-03T05:18:55;2.67;;;1.93;;
4102;SDS011;2065;49.790;9.620;2022-09-03T05:21:25;3.37;;;2.30;;
4102;SDS011;2065;49.790;9.620;2022-09-03T05:23:53;2.40;;;1.80;;
4102;SDS011;2065;49.790;9.620;2022-09-03T05:26:21;5.30;;;2.00;;
4102;SDS011;2065;49.790;9.620;2022-09-03T05:28:51;2.20;;;2.00;;
4102;SDS011;2065;49.790;9.620;2022-09-03T05:31:19;3.37;;;1.80;;
4102;SDS011;2065;49.790;9.620;2022-09-03T05:33:48;1.90;;;1.80;;
4102;SDS011;2065;49.790;9.620;2022-09-03T05:36:16;1.90;;;1.80;;
4102;SDS011;2065;49.790;9.620;2022-09-03T05:38:45;2.53;;;2.23;;
4102;SDS011;2065;49.790;9.620;2022-09-03T05:41:13;2.90;;;1.90;;
4102;SDS011;2065;49.790;9.620;2022-09-03T05:43:42;2.10;;;1.87;;
4102;SDS011;2065;49.790;9.620;2022-09-03T05:46:10;2.73;;;1.83;;
4102;SDS011;2065;49.790;9.620;2022-09-03T05:48:38;2.03;;;1.90;;
4102;SDS011;2065;49.790;9.620;2022-09-03T05:51:07;2.40;;;2.20;;
4102;SDS011;2065;49.790;9.620;2022-09-03T05:53:36;2.47;;;1.77;;
4102;SDS011;2065;49.790;9.620;2022-09-03T05:56:06;1.70;;;1.60;;
4102;SDS011;2065;49.790;9.620;2022-09-03T05:58:36;2.17;;;1.97;;
4102;SDS011;2065;49.790;9.620;2022-09-03T06:01:09;2.17;;;1.87;;
4102;SDS011;2065;49.790;9.620;2022-09-03T06:03:37;2.13;;;2.00;;
4102;SDS011;2065;49.790;9.620;2022-09-03T06:06:04;2.20;;;1.90;;
4102;SDS011;2065;49.790;9.620;2022-09-03T06:08:31;3.00;;;2.20;;
4102;SDS011;2065;49.790;9.620;2022-09-03T06:10:58;2.40;;;1.70;;
4102;SDS011;2065;49.790;9.620;2022-09-03T06:13:27;2.40;;;1.87;;
4102;SDS011;2065;49.790;9.620;2022-09-03T06:15:55;2.10;;;1.90;;
4102;SDS011;2065;49.790;9.620;2022-09-03T06:18:22;2.53;;;2.10;;
4102;SDS011;2065;49.790;9.620;2022-09-03T06:20:52;2.27;;;2.00;;
4102;SDS011;2065;49.790;9.620;2022-09-03T06:23:20;1.80;;;1.70;;
4102;SDS011;2065;49.790;9.620;2022-09-03T06:25:47;2.80;;;2.07;;
4102;SDS011;2065;49.790;9.620;2022-09-03T06:28:14;2.57;;;2.37;;
4102;SDS011;2065;49.790;9.620;2022-09-03T06:30:42;3.20;;;1.80;;
4102;SDS011;2065;49.790;9.620;2022-09-03T06:33:09;4.00;;;2.10;;
4102;SDS011;2065;49.790;9.620;2022-09-03T06:35:36;3.20;;;2.00;;
4102;SDS011;2065;49.790;9.620;2022-09-03T06:38:03;1.83;;;1.73;;
4102;SDS011;2065;49.790;9.620;2022-09-03T06:40:30;2.23;;;2.03;;
4102;SDS011;2065;49.790;9.620;2022-09-03T06:42:57;2.00;;;1.80;;
4102;SDS011;2065;49.790;9.620;2022-09-03T06:45:25;3.63;;;1.87;;
4102;SDS011;2065;49.790;9.620;2022-09-03T06:47:53;2.77;;;1.83;;
4102;SDS011;2065;49.790;9.620;2022-09-03T06:50:20;1.90;;;1.80;;
4102;SDS011;2065;49.790;9.620;2022-09-03T06:52:49;3.73;;;2.23;;
4102;SDS011;2065;49.790;9.620;2022-09-03T06:55:19;3.20;;;2.00;;
4102;SDS011;2065;49.790;9.620;2022-09-03T06:57:47;2.80;;;1.80;;
4102;SDS011;2065;49.790;9.620;2022-09-03T07:00:15;2.33;;;2.13;;
4102;SDS011;2065;49.790;9.620;2022-09-03T07:02:42;2.00;;;1.90;;
4102;SDS011;2065;49.790;9.620;2022-09-03T07:05:10;4.13;;;1.60;;
4102;SDS011;2065;49.790;9.620;2022-09-03T07:07:37;2.10;;;2.00;;
4102;SDS011;2065;49.790;9.620;2022-09-03T07:10:05;1.90;;;1.80;;
4102;SDS011;2065;49.790;9.620;2022-09-03T07:12:34;2.33;;;2.13;;
4102;SDS011;2065;49.790;9.620;2022-09-03T07:15:02;4.23;;;2.17;;
4102;SDS011;2065;49.790;9.620;2022-09-03T07:17:30;2.00;;;1.80;;
4102;SDS011;2065;49.790;9.620;2022-09-03T07:19:57;2.70;;;2.10;;
4102;SDS011;2065;49.790;9.620;2022-09-03T07:22:25;5.33;;;1.87;;
4102;SDS011;2065;49.790;9.620;2022-09-03T07:24:52;2.03;;;1.93;;
4102;SDS011;2065;49.790;9.620;2022-09-03T07:27:19;2.70;;;1.90;;
4102;SDS011;2065;49.790;9.620;2022-09-03T07:29:46;4.80;;;2.13;;
4102;SDS011;2065;49.790;9.620;2022-09-03T07:32:13;4.07;;;2.43;;
4102;SDS011;2065;49.790;9.620;2022-09-03T07:34:40;3.40;;;1.70;;
4102;SDS011;2065;49.790;9.620;2022-09-03T07:37:06;2.00;;;1.90;;
4102;SDS011;2065;49.790;9.620;2022-09-03T07:39:35;4.77;;;2.03;;
4102;SDS011;2065;49.790;9.620;2022-09-03T07:42:02;2.10;;;2.00;;
4102;SDS011;2065;49.790;9.620;2022-09-03T07:44:29;2.50;;;2.10;;
4102;SDS011;2065;49.790;9.620;2022-09-03T07:46:56;3.63;;;1.93;;
4102;SDS011;2065;49.790;9.620;2022-09-03T07:49:25;2.40;;;2.20;;
4102;SDS011;2065;49.790;9.620;2022-09-03T07:51:52;4.10;;;1.97;;
4102;SDS011;2065;49.790;9.620;2022-09-03T07:54:19;4.30;;;2.30;;
4102;SDS011;2065;49.790;9.620;2022-09-03T07:56:49;7.00;;;2.20;;
4102;SDS011;2065;49.790;9.620;2022-09-03T07:59:16;1.90;;;1.70;;
4102;SDS011;2065;49.790;9.620;2022-09-03T08:01:43;2.70;;;2.50;;
4102;SDS011;2065;49.790;9.620;2022-09-03T08:04:10;6.30;;;2.37;;
4102;SDS011;2065;49.790;9.620;2022-09-03T08:06:37;8.57;;;2.37;;
4102;SDS011;2065;49.790;9.620;2022-09-03T08:09:05;8.00;;;2.60;;
4102;SDS011;2065;49.790;9.620;2022-09-03T08:11:36;5.60;;;2.03;;
4102;SDS011;2065;49.790;9.620;2022-09-03T08:14:06;2.27;;;1.63;;
4102;SDS011;2065;49.790;9.620;2022-09-03T08:16:35;2.17;;;2.00;;
4102;SDS011;2065;49.790;9.620;2022-09-03T08:19:03;4.13;;;2.07;;
4102;SDS011;2065;49.790;9.620;2022-09-03T08:21:31;2.43;;;2.23;;
4102;SDS011;2065;49.790;9.620;2022-09-03T08:23:58;5.53;;;2.07;;
4102;SDS011;2065;49.790;9.620;2022-09-03T08:26:27;2.77;;;2.43;;
4102;SDS011;2065;49.790;9.620;2022-09-03T08:28:55;2.60;;;2.10;;
4102;SDS011;2065;49.790;9.620;2022-09-03T08:31:24;2.43;;;2.23;;
4102;SDS011;2065;49.790;9.620;2022-09-03T08:33:53;1.90;;;1.80;;
4102;SDS011;2065;49.790;9.620;2022-09-03T08:36:22;2.27;;;2.07;;
4102;SDS011;2065;49.790;9.620;2022-09-03T08:38:50;4.67;;;2.00;;
4102;SDS011;2065;49.790;9.620;2022-09-03T08:41:22;2.97;;;2.30;;
4102;SDS011;2065;49.790;9.620;2022-09-03T08:44:08;2.17;;;1.90;;
4102;SDS011;2065;49.790;9.620;2022-09-03T08:46:45;2.23;;;2.03;;
4102;SDS011;2065;49.790;9.620;2022-09-03T08:49:18;2.20;;;2.00;;
4102;SDS011;2065;49.790;9.620;2022-09-03T08:51:50;2.33;;;2.23;;
4102;SDS011;2065;49.790;9.620;2022-09-03T08:54:23;2.17;;;1.97;;
4102;SDS011;2065;49.790;9.620;2022-09-03T08:56:54;2.90;;;2.00;;
4102;SDS011;2065;49.790;9.620;2022-09-03T08:59:25;2.23;;;2.07;;
4102;SDS011;2065;49.790;9.620;2022-09-03T09:01:54;3.47;;;1.90;;
4102;SDS011;2065;49.790;9.620;2022-09-03T09:04:38;4.33;;;2.23;;
4102;SDS011;2065;49.790;9.620;2022-09-03T09:07:16;2.00;;;1.90;;
4102;SDS011;2065;49.790;9.620;2022-09-03T09:09:48;2.07;;;1.97;;
4102;SDS011;2065;49.790;9.620;2022-09-03T09:12:28;3.20;;;2.20;;
4102;SDS011;2065;49.790;9.620;2022-09-03T09:15:04;3.00;;;2.03;;
4102;SDS011;2065;49.790;9.620;2022-09-03T09:17:39;4.47;;;2.37;;
4102;SDS011;2065;49.790;9.620;2022-09-03T09:20:24;2.40;;;2.10;;
4102;SDS011;2065;49.790;9.620;2022-09-03T09:22:59;2.37;;;1.80;;
4102;SDS011;2065;49.790;9.620;2022-09-03T09:25:30;4.90;;;2.53;;
4102;SDS011;2065;49.790;9.620;2022-09-03T09:27:58;2.20;;;2.07;;
4102;SDS011;2065;49.790;9.620;2022-09-03T09:30:27;3.77;;;2.33;;
4102;SDS011;2065;49.790;9.620;2022-09-03T09:32:56;3.27;;;2.20;;
4102;SDS011;2065;49.790;9.620;2022-09-03T09:35:24;2.97;;;2.20;;
4102;SDS011;2065;49.790;9.620;2022-09-03T09:37:52;6.40;;;2.27;;
4102;SDS011;2065;49.790;9.620;2022-09-03T09:40:24;2.20;;;2.00;;
4102;SDS011;2065;49.790;9.620;2022-09-03T09:43:04;4.17;;;2.43;;
4102;SDS011;2065;49.790;9.620;2022-09-03T09:45:32;5.93;;;2.40;;
4102;SDS011;2065;49.790;9.620;2022-09-03T09:48:01;2.13;;;1.93;;
4102;SDS011;2065;49.790;9.620;2022-09-03T09:50:40;2.13;;;2.03;;
4102;SDS011;2065;49.790;9.620;2022-09-03T09:53:09;2.40;;;1.93;;
4102;SDS011;2065;49.790;9.620;2022-09-03T09:55:53;3.00;;;2.20;;
4102;SDS011;2065;49.790;9.620;2022-09-03T09:58:22;2.67;;;2.47;;
4102;SDS011;2065;49.790;9.620;2022-09-03T10:00:54;3.47;;;2.47;;
4102;SDS011;2065;49.790;9.620;2022-09-03T10:03:39;3.63;;;2.20;;
4102;SDS011;2065;49.790;9.620;2022-09-03T10:06:14;4.30;;;2.70;;
4102;SDS011;2065;49.790;9.620;2022-09-03T10:09:06;3.70;;;2.63;;
4102;SDS011;2065;49.790;9.620;2022-09-03T10:11:34;2.90;;;1.93;;
4102;SDS011;2065;49.790;9.620;2022-09-03T10:14:05;8.13;;;2.20;;
4102;SDS011;2065;49.790;9.620;2022-09-03T10:16:38;2.80;;;2.47;;
4102;SDS011;2065;49.790;9.620;2022-09-03T10:19:12;9.17;;;2.00;;
4102;SDS011;2065;49.790;9.620;2022-09-03T10:21:44;2.00;;;1.87;;
4102;SDS011;2065;49.790;9.620;2022-09-03T10:24:25;2.23;;;2.10;;
4102;SDS011;2065;49.790;9.620;2022-09-03T10:27:09;4.77;;;2.50;;
4102;SDS011;2065;49.790;9.620;2022-09-03T10:29:40;4.40;;;2.43;;
4102;SDS011;2065;49.790;9.620;2022-09-03T10:32:11;4.43;;;2.10;;
4102;SDS011;2065;49.790;9.620;2022-09-03T10:34:53;2.47;;;2.27;;
4102;SDS011;2065;49.790;9.620;2022-09-03T10:37:31;3.10;;;2.60;;
4102;SDS011;2065;49.790;9.620;2022-09-03T10:40:16;4.50;;;2.30;;
4102;SDS011;2065;49.790;9.620;2022-09-03T10:42:59;2.90;;;2.30;;
4102;SDS011;2065;49.790;9.620;2022-09-03T10:45:37;2.73;;;2.13;;
4102;SDS011;2065;49.790;9.620;2022-09-03T10:51:03;2.20;;;1.83;;
4102;SDS011;2065;49.790;9.620;2022-09-03T10:53:36;3.23;;;2.50;;
4102;SDS011;2065;49.790;9.620;2022-09-03T10:56:16;2.77;;;2.57;;
4102;SDS011;2065;49.790;9.620;2022-09-03T10:58:51;2.93;;;2.30;;
4102;SDS011;2065;49.790;9.620;2022-09-03T11:01:31;2.50;;;2.30;;
4102;SDS011;2065;49.790;9.620;2022-09-03T11:04:11;2.60;;;2.50;;
4102;SDS011;2065;49.790;9.620;2022-09-03T11:06:49;4.53;;;2.77;;
4102;SDS011;2065;49.790;9.620;2022-09-03T11:09:19;2.90;;;2.70;;
4102;SDS011;2065;49.790;9.620;2022-09-03T11:11:50;3.33;;;2.80;;
4102;SDS011;2065;49.790;9.620;2022-09-03T11:14:23;5.60;;;3.60;;
4102;SDS011;2065;49.790;9.620;2022-09-03T11:16:58;4.23;;;3.93;;
4102;SDS011;2065;49.790;9.620;2022-09-03T11:19:31;5.97;;;4.30;;
4102;SDS011;2065;49.790;9.620;2022-09-03T11:22:02;4.73;;;4.33;;
4102;SDS011;2065;49.790;9.620;2022-09-03T11:24:30;10.13;;;4.80;;
4102;SDS011;2065;49.790;9.620;2022-09-03T11:27:03;3.87;;;3.57;;
4102;SDS011;2065;49.790;9.620;2022-09-03T11:29:39;8.23;;;3.63;;
4102;SDS011;2065;49.790;9.620;2022-09-03T11:32:15;5.77;;;3.63;;
4102;SDS011;2065;49.790;9.620;2022-09-03T11:34:46;4.13;;;3.83;;
4102;SDS011;2065;49.790;9.620;2022-09-03T11:37:17;5.47;;;3.73;;
4102;SDS011;2065;49.790;9.620;2022-09-03T11:39:52;4.30;;;3.83;;
4102;SDS011;2065;49.790;9.620;2022-09-03T11:42:29;5.93;;;3.80;;
4102;SDS011;2065;49.790;9.620;2022-09-03T11:44:59;6.47;;;3.70;;
4102;SDS011;2065;49.790;9.620;2022-09-03T11:47:39;5.83;;;4.20;;
4102;SDS011;2065;49.790;9.620;2022-09-03T11:50:16;4.50;;;4.20;;
4102;SDS011;2065;49.790;9.620;2022-09-03T11:52:48;5.20;;;4.57;;
4102;SDS011;2065;49.790;9.620;2022-09-03T11:55:28;4.90;;;4.40;;
4102;SDS011;2065;49.790;9.620;2022-09-03T11:58:10;7.30;;;4.87;;
4102;SDS011;2065;49.790;9.620;2022-09-03T12:00:38;3.70;;;3.40;;
4102;SDS011;2065;49.790;9.620;2022-09-03T12:03:11;4.20;;;3.83;;
4102;SDS011;2065;49.790;9.620;2022-09-03T12:05:44;5.83;;;4.00;;
4102;SDS011;2065;49.790;9.620;2022-09-03T12:11:26;5.50;;;3.97;;
4102;SDS011;2065;49.790;9.620;2022-09-03T12:14:03;3.17;;;2.97;;
4102;SDS011;2065;49.790;9.620;2022-09-03T12:16:40;14.13;;;5.60;;
4102;SDS011;2065;49.790;9.620;2022-09-03T12:19:35;7.87;;;3.90;;
4102;SDS011;2065;49.790;9.620;2022-09-03T12:22:05;3.30;;;3.00;;
4102;SDS011;2065;49.790;9.620;2022-09-03T12:24:39;3.77;;;3.23;;
4102;SDS011;2065;49.790;9.620;2022-09-03T12:27:09;4.03;;;3.63;;
4102;SDS011;2065;49.790;9.620;2022-09-03T12:29:48;6.10;;;4.17;;
4102;SDS011;2065;49.790;9.620;2022-09-03T12:32:24;3.23;;;3.03;;
4102;SDS011;2065;49.790;9.620;2022-09-03T12:34:52;4.13;;;3.20;;
4102;SDS011;2065;49.790;9.620;2022-09-03T12:37:19;3.60;;;3.30;;
4102;SDS011;2065;49.790;9.620;2022-09-03T12:39:53;3.10;;;2.90;;
4102;SDS011;2065;49.790;9.620;2022-09-03T12:42:22;3.83;;;3.30;;
4102;SDS011;2065;49.790;9.620;2022-09-03T12:44:51;6.60;;;3.20;;
4102;SDS011;2065;49.790;9.620;2022-09-03T12:47:19;4.80;;;3.40;;
4102;SDS011;2065;49.790;9.620;2022-09-03T12:49:48;3.87;;;2.80;;
4102;SDS011;2065;49.790;9.620;2022-09-03T12:52:17;3.70;;;3.40;;
4102;SDS011;2065;49.790;9.620;2022-09-03T12:54:48;3.40;;;3.07;;
4102;SDS011;2065;49.790;9.620;2022-09-03T12:57:21;4.77;;;2.97;;
4102;SDS011;2065;49.790;9.620;2022-09-03T12:59:49;3.60;;;3.30;;
4102;SDS011;2065;49.790;9.620;2022-09-03T13:02:21;4.80;;;2.83;;
4102;SDS011;2065;49.790;9.620;2022-09-03T13:04:51;4.30;;;3.17;;
4102;SDS011;2065;49.790;9.620;2022-09-03T13:07:20;3.23;;;3.03;;
4102;SDS011;2065;49.790;9.620;2022-09-03T13:09:57;6.03;;;3.13;;
4102;SDS011;2065;49.790;9.620;2022-09-03T13:12:31;4.47;;;3.13;;
4102;SDS011;2065;49.790;9.620;2022-09-03T13:15:07;4.20;;;2.80;;
4102;SDS011;2065;49.790;9.620;2022-09-03T13:17:44;4.77;;;3.60;;
4102;SDS011;2065;49.790;9.620;2022-09-03T13:20:23;3.60;;;3.30;;
4102;SDS011;2065;49.790;9.620;2022-09-03T13:23:06;3.33;;;2.50;;
4102;SDS011;2065;49.790;9.620;2022-09-03T13:25:45;3.00;;;2.80;;
4102;SDS011;2065;49.790;9.620;2022-09-03T13:28:23;4.03;;;3.23;;
4102;SDS011;2065;49.790;9.620;2022-09-03T13:30:59;3.07;;;2.77;;
4102;SDS011;2065;49.790;9.620;2022-09-03T13:33:36;9.33;;;3.37;;
4102;SDS011;2065;49.790;9.620;2022-09-03T13:36:09;3.30;;;3.00;;
4102;SDS011;2065;49.790;9.620;2022-09-03T13:38:42;3.27;;;2.97;;
4102;SDS011;2065;49.790;9.620;2022-09-03T13:41:15;5.07;;;4.67;;
4102;SDS011;2065;49.790;9.620;2022-09-03T13:43:53;3.80;;;3.20;;
4102;SDS011;2065;49.790;9.620;2022-09-03T13:46:28;2.57;;;2.37;;
4102;SDS011;2065;49.790;9.620;2022-09-03T13:49:00;2.93;;;2.73;;
4102;SDS011;2065;49.790;9.620;2022-09-03T13:51:57;5.57;;;2.60;;
4102;SDS011;2065;49.790;9.620;2022-09-03T13:54:27;2.70;;;2.50;;
4102;SDS011;2065;49.790;9.620;2022-09-03T13:57:00;2.60;;;2.40;;
4102;SDS011;2065;49.790;9.620;2022-09-03T13:59:33;3.53;;;2.27;;
4102;SDS011;2065;49.790;9.620;2022-09-03T14:02:17;4.97;;;2.70;;
4102;SDS011;2065;49.790;9.620;2022-09-03T14:04:54;2.70;;;2.50;;
4102;SDS011;2065;49.790;9.620;2022-09-03T14:07:36;2.70;;;1.70;;
4102;SDS011;2065;49.790;9.620;2022-09-03T14:10:18;8.43;;;2.30;;
4102;SDS011;2065;49.790;9.620;2022-09-03T14:12:49;2.10;;;2.00;;
4102;SDS011;2065;49.790;9.620;2022-09-03T14:15:29;2.20;;;2.00;;
4102;SDS011;2065;49.790;9.620;2022-09-03T14:18:01;7.13;;;2.60;;
4102;SDS011;2065;49.790;9.620;2022-09-03T14:20:40;2.00;;;1.90;;
4102;SDS011;2065;49.790;9.620;2022-09-03T14:23:19;2.00;;;1.90;;
4102;SDS011;2065;49.790;9.620;2022-09-03T14:25:54;1.83;;;1.73;;
4102;SDS011;2065;49.790;9.620;2022-09-03T14:28:27;5.03;;;1.90;;
4102;SDS011;2065;49.790;9.620;2022-09-03T14:31:00;2.30;;;2.20;;
4102;SDS011;2065;49.790;9.620;2022-09-03T14:33:38;2.70;;;1.80;;
4102;SDS011;2065;49.790;9.620;2022-09-03T14:36:13;2.13;;;2.00;;
4102;SDS011;2065;49.790;9.620;2022-09-03T14:38:56;2.13;;;2.03;;
4102;SDS011;2065;49.790;9.620;2022-09-03T14:41:43;1.90;;;1.80;;
4102;SDS011;2065;49.790;9.620;2022-09-03T14:44:25;2.43;;;2.23;;
4102;SDS011;2065;49.790;9.620;2022-09-03T14:47:05;2.03;;;1.93;;
4102;SDS011;2065;49.790;9.620;2022-09-03T14:49:52;1.93;;;1.83;;
4102;SDS011;2065;49.790;9.620;2022-09-03T14:52:53;2.10;;;1.90;;
4102;SDS011;2065;49.790;9.620;2022-09-03T14:55:28;4.13;;;2.20;;
4102;SDS011;2065;49.790;9.620;2022-09-03T14:58:14;3.33;;;2.20;;
4102;SDS011;2065;49.790;9.620;2022-09-03T15:00:50;3.43;;;2.30;;
4102;SDS011;2065;49.790;9.620;2022-09-03T15:03:29;2.73;;;2.07;;
4102;SDS011;2065;49.790;9.620;2022-09-03T15:06:25;2.33;;;1.80;;
4102;SDS011;2065;49.790;9.620;2022-09-03T15:11:53;7.00;;;2.17;;
4102;SDS011;2065;49.790;9.620;2022-09-03T15:14:26;5.60;;;2.17;;
4102;SDS011;2065;49.790;9.620;2022-09-03T15:17:01;2.53;;;2.33;;
4102;SDS011;2065;49.790;9.620;2022-09-03T15:22:58;1.80;;;1.70;;
4102;SDS011;2065;49.790;9.620;2022-09-03T15:25:40;2.70;;;1.80;;
4102;SDS011;2065;49.790;9.620;2022-09-03T15:28:37;6.17;;;2.90;;
4102;SDS011;2065;49.790;9.620;2022-09-03T15:31:14;7.60;;;2.20;;
4102;SDS011;2065;49.790;9.620;2022-09-03T15:33:46;2.70;;;2.50;;
4102;SDS011;2065;49.790;9.620;2022-09-03T15:36:23;2.20;;;2.03;;
4102;SDS011;2065;49.790;9.620;2022-09-03T15:38:59;2.13;;;1.93;;
4102;SDS011;2065;49.790;9.620;2022-09-03T15:41:33;2.33;;;2.03;;
4102;SDS011;2065;49.790;9.620;2022-09-03T15:44:07;2.30;;;2.10;;
4102;SDS011;2065;49.790;9.620;2022-09-03T15:46:48;3.10;;;2.10;;
4102;SDS011;2065;49.790;9.620;2022-09-03T15:49:24;3.87;;;1.90;;
4102;SDS011;2065;49.790;9.620;2022-09-03T15:52:00;1.80;;;1.70;;
4102;SDS011;2065;49.790;9.620;2022-09-03T15:54:35;2.43;;;2.23;;
4102;SDS011;2065;49.790;9.620;2022-09-03T15:57:09;2.07;;;1.90;;
4102;SDS011;2065;49.790;9.620;2022-09-03T15:59:41;2.03;;;1.83;;